createdAt,value
2018-09-21T00:01:38.217Z,15.19
2018-09-21T00:04:11.558Z,15.16
2018-09-21T00:06:40.860Z,15.12
2018-09-21T00:09:11.513Z,15.08
2018-09-21T00:11:40.471Z,15.11
2018-09-21T00:14:09.474Z,15.11
2018-09-21T00:16:38.461Z,15.14
2018-09-21T00:19:07.415Z,15.13
2018-09-21T00:21:36.546Z,15.13
2018-09-21T00:24:05.489Z,15.09
2018-09-21T00:26:34.491Z,15.09
2018-09-21T00:29:03.501Z,15.11
2018-09-21T00:31:32.539Z,15.12
2018-09-21T00:34:01.507Z,15.06
2018-09-21T00:36:30.492Z,15.05
2018-09-21T00:38:59.509Z,14.99
2018-09-21T00:41:28.468Z,14.94
2018-09-21T00:43:57.556Z,14.91
2018-09-21T00:46:26.614Z,14.84
2018-09-21T00:48:55.569Z,14.77
2018-09-21T00:51:24.561Z,14.72
2018-09-21T00:53:53.533Z,14.68
2018-09-21T00:56:22.567Z,14.64
2018-09-21T00:58:51.494Z,14.62
2018-09-21T01:01:20.432Z,14.58
2018-09-21T01:03:49.489Z,14.54
2018-09-21T01:06:18.449Z,14.51
2018-09-21T01:08:47.474Z,14.53
2018-09-21T01:11:16.426Z,14.49
2018-09-21T01:13:45.370Z,14.46
2018-09-21T01:16:14.372Z,14.46
2018-09-21T01:18:43.402Z,14.46
2018-09-21T01:21:12.400Z,14.45
2018-09-21T01:23:41.349Z,14.46
2018-09-21T01:26:10.381Z,14.46
2018-09-21T01:28:39.384Z,14.52
2018-09-21T01:31:08.341Z,14.57
2018-09-21T01:33:37.359Z,14.55
2018-09-21T01:36:06.337Z,14.56
2018-09-21T01:38:35.283Z,14.56
2018-09-21T01:41:04.260Z,14.53
2018-09-21T01:43:33.235Z,14.50
2018-09-21T01:46:02.176Z,14.47
2018-09-21T01:48:31.196Z,14.46
2018-09-21T01:51:00.137Z,14.44
2018-09-21T01:53:29.177Z,14.39
2018-09-21T01:55:58.188Z,14.38
2018-09-21T01:58:27.162Z,14.38
2018-09-21T02:00:56.113Z,14.37
2018-09-21T02:03:25.956Z,14.36
2018-09-21T02:05:54.951Z,14.33
2018-09-21T02:08:23.999Z,14.29
2018-09-21T02:10:53.003Z,14.24
2018-09-21T02:13:22.084Z,14.13
2018-09-21T02:15:51.289Z,14.02
2018-09-21T02:18:20.295Z,13.91
2018-09-21T02:20:49.349Z,13.82
2018-09-21T02:23:18.316Z,13.75
2018-09-21T02:25:47.276Z,13.63
2018-09-21T02:28:16.371Z,13.55
2018-09-21T02:30:45.317Z,13.51
2018-09-21T02:33:14.392Z,13.51
2018-09-21T02:35:43.331Z,13.50
2018-09-21T02:38:12.434Z,13.51
2018-09-21T02:40:41.477Z,13.50
2018-09-21T02:43:10.610Z,13.47
2018-09-21T02:45:39.592Z,13.44
2018-09-21T02:48:08.689Z,13.46
2018-09-21T02:50:37.767Z,13.50
2018-09-21T02:53:06.717Z,13.50
2018-09-21T02:55:35.769Z,13.46
2018-09-21T02:58:04.777Z,13.43
2018-09-21T03:00:33.849Z,13.41
2018-09-21T03:03:02.812Z,13.50
2018-09-21T03:05:31.834Z,13.50
2018-09-21T03:08:00.872Z,13.51
2018-09-21T03:10:29.868Z,13.46
2018-09-21T03:12:58.900Z,13.41
2018-09-21T03:15:27.930Z,13.39
2018-09-21T03:17:56.927Z,13.31
2018-09-21T03:20:25.895Z,13.24
2018-09-21T03:22:54.920Z,13.21
2018-09-21T03:25:23.996Z,13.17
2018-09-21T03:27:52.981Z,13.13
2018-09-21T03:30:21.996Z,13.05
2018-09-21T03:32:51.014Z,12.96
2018-09-21T03:35:20.014Z,12.86
2018-09-21T03:37:49.024Z,12.79
2018-09-21T03:40:17.981Z,12.74
2018-09-21T03:42:47.055Z,12.69
2018-09-21T03:45:16.025Z,12.63
2018-09-21T03:47:45.040Z,12.59
2018-09-21T03:50:14.007Z,12.53
2018-09-21T03:52:43.034Z,12.49
2018-09-21T03:55:12.003Z,12.48
2018-09-21T03:57:40.971Z,12.44
2018-09-21T04:00:10.393Z,12.36
2018-09-21T04:02:39.335Z,12.35
2018-09-21T04:05:08.282Z,12.35
2018-09-21T04:07:37.255Z,12.38
2018-09-21T04:10:06.406Z,12.44
2018-09-21T04:12:35.409Z,12.46
2018-09-21T04:15:04.491Z,12.49
2018-09-21T04:17:33.572Z,12.55
2018-09-21T04:20:02.532Z,12.63
2018-09-21T04:22:31.799Z,12.71
2018-09-21T04:25:01.239Z,12.79
2018-09-21T04:27:30.348Z,12.86
2018-09-21T04:29:59.486Z,12.90
2018-09-21T04:32:28.424Z,12.93
2018-09-21T04:34:57.532Z,12.96
2018-09-21T04:37:26.509Z,13.04
2018-09-21T04:39:55.503Z,13.13
2018-09-21T04:42:24.496Z,13.26
2018-09-21T04:44:53.470Z,13.44
2018-09-21T04:47:22.436Z,13.69
2018-09-21T04:49:51.458Z,14.49
2018-09-21T04:52:20.520Z,15.00
2018-09-21T04:54:49.557Z,15.03
2018-09-21T04:57:18.602Z,14.97
2018-09-21T04:59:47.538Z,15.07
2018-09-21T05:02:16.499Z,15.20
2018-09-21T05:04:45.442Z,15.38
2018-09-21T05:07:14.382Z,15.56
2018-09-21T05:09:43.350Z,15.77
2018-09-21T05:12:12.437Z,16.03
2018-09-21T05:14:41.379Z,16.25
2018-09-21T05:17:10.362Z,16.34
2018-09-21T05:19:39.401Z,16.45
2018-09-21T05:22:08.485Z,16.68
2018-09-21T05:24:37.443Z,17.00
2018-09-21T05:27:06.465Z,17.26
2018-09-21T05:29:35.484Z,17.61
2018-09-21T05:32:04.482Z,17.88
2018-09-21T05:34:33.541Z,18.16
2018-09-21T05:37:02.648Z,18.39
2018-09-21T05:39:31.633Z,18.58
2018-09-21T05:42:00.643Z,18.73
2018-09-21T05:44:29.643Z,18.79
2018-09-21T05:46:58.645Z,18.77
2018-09-21T05:49:27.603Z,18.94
2018-09-21T05:51:56.541Z,19.08
2018-09-21T05:54:25.536Z,19.04
2018-09-21T05:56:54.597Z,19.01
2018-09-21T05:59:23.689Z,18.99
2018-09-21T06:01:52.640Z,18.96
2018-09-21T06:04:21.600Z,19.13
2018-09-21T06:06:50.554Z,19.26
2018-09-21T06:09:19.513Z,19.48
2018-09-21T06:11:48.529Z,19.48
2018-09-21T06:14:17.534Z,19.63
2018-09-21T06:16:46.608Z,19.59
2018-09-21T06:19:15.624Z,19.90
2018-09-21T06:21:44.575Z,19.93
2018-09-21T06:24:13.594Z,19.92
2018-09-21T06:26:42.559Z,19.88
2018-09-21T06:29:11.601Z,20.00
2018-09-21T06:31:40.533Z,19.92
2018-09-21T06:34:09.552Z,19.90
2018-09-21T06:36:38.571Z,20.10
2018-09-21T06:39:10.587Z,20.26
2018-09-21T06:41:39.888Z,20.41
2018-09-21T06:44:09.074Z,20.60
2018-09-21T06:46:38.067Z,20.43
2018-09-21T06:49:07.198Z,20.28
2018-09-21T06:51:36.251Z,20.45
2018-09-21T06:54:05.248Z,20.58
2018-09-21T06:56:34.279Z,20.77
2018-09-21T06:59:03.261Z,21.05
2018-09-21T07:01:32.267Z,21.19
2018-09-21T07:04:01.224Z,21.35
2018-09-21T07:06:30.239Z,21.67
2018-09-21T07:08:59.260Z,21.83
2018-09-21T07:11:28.204Z,21.75
2018-09-21T07:13:57.219Z,21.86
2018-09-21T07:16:26.309Z,22.04
2018-09-21T07:18:55.287Z,22.13
2018-09-21T07:21:24.991Z,22.24
2018-09-21T07:23:53.975Z,22.35
2018-09-21T07:26:23.142Z,22.42
2018-09-21T07:28:52.300Z,22.41
2018-09-21T07:31:21.316Z,22.30
2018-09-21T07:33:50.342Z,22.16
2018-09-21T07:36:19.389Z,21.97
2018-09-21T07:38:48.428Z,21.98
2018-09-21T07:41:17.391Z,22.12
2018-09-21T07:43:46.570Z,22.30
2018-09-21T07:46:15.548Z,22.31
2018-09-21T07:48:46.516Z,22.46
2018-09-21T07:51:15.548Z,22.57
2018-09-21T07:53:44.542Z,22.86
2018-09-21T07:56:13.710Z,22.91
2018-09-21T07:58:42.755Z,22.78
2018-09-21T08:01:11.729Z,22.98
2018-09-21T08:03:40.756Z,23.10
2018-09-21T08:06:09.761Z,23.13
2018-09-21T08:08:38.738Z,23.33
2018-09-21T08:11:07.691Z,23.47
2018-09-21T08:13:36.719Z,23.65
2018-09-21T08:16:05.738Z,23.82
2018-09-21T08:18:34.764Z,23.92
2018-09-21T08:21:03.730Z,24.05
2018-09-21T08:23:32.681Z,24.12
2018-09-21T08:26:01.713Z,24.29
2018-09-21T08:28:30.674Z,24.23
2018-09-21T08:30:59.660Z,24.28
2018-09-21T08:33:28.608Z,24.48
2018-09-21T08:35:57.619Z,24.55
2018-09-21T08:38:26.638Z,24.62
2018-09-21T08:40:56.305Z,24.74
2018-09-21T08:43:25.329Z,24.89
2018-09-21T08:45:54.319Z,24.91
2018-09-21T08:48:23.283Z,25.00
2018-09-21T08:50:52.232Z,25.24
2018-09-21T08:53:21.371Z,25.54
2018-09-21T08:55:50.328Z,25.54
2018-09-21T08:58:19.360Z,25.71
2018-09-21T09:00:48.399Z,25.75
2018-09-21T09:03:17.441Z,25.72
2018-09-21T09:05:52.284Z,25.80
2018-09-21T09:08:22.897Z,25.92
2018-09-21T09:10:52.073Z,26.14
2018-09-21T09:13:21.079Z,26.26
2018-09-21T09:15:50.911Z,26.36
2018-09-21T09:18:19.880Z,26.62
2018-09-21T09:20:48.848Z,26.91
2018-09-21T09:23:17.843Z,27.18
2018-09-21T09:25:46.816Z,27.21
2018-09-21T09:28:15.806Z,27.53
2018-09-21T09:30:44.750Z,27.55
2018-09-21T09:33:13.749Z,27.52
2018-09-21T09:35:42.753Z,27.75
2018-09-21T09:38:11.812Z,27.71
2018-09-21T09:40:40.762Z,27.82
2018-09-21T09:43:09.860Z,28.07
2018-09-21T09:45:38.935Z,28.33
2018-09-21T09:48:07.884Z,28.77
2018-09-21T09:50:36.893Z,28.69
2018-09-21T09:53:06.326Z,28.88
2018-09-21T09:55:35.272Z,29.11
2018-09-21T09:58:04.220Z,29.17
2018-09-21T10:00:36.242Z,29.15
2018-09-21T10:03:05.285Z,29.16
2018-09-21T10:05:34.325Z,29.28
2018-09-21T10:08:03.280Z,29.33
2018-09-21T10:10:32.254Z,29.48
2018-09-21T10:13:01.226Z,29.70
2018-09-21T10:15:30.233Z,29.93
2018-09-21T10:17:59.234Z,30.25
2018-09-21T10:20:28.316Z,30.18
2018-09-21T10:22:57.227Z,30.36
2018-09-21T10:25:26.202Z,30.39
2018-09-21T10:27:55.404Z,30.27
2018-09-21T10:30:24.169Z,30.44
2018-09-21T10:32:53.124Z,30.54
2018-09-21T10:35:22.061Z,30.61
2018-09-21T10:37:51.058Z,30.89
2018-09-21T10:40:20.008Z,30.88
2018-09-21T10:42:49.190Z,30.75
2018-09-21T10:45:18.126Z,30.63
2018-09-21T10:47:47.111Z,30.44
2018-09-21T10:50:16.125Z,31.01
2018-09-21T10:52:45.171Z,31.29
2018-09-21T10:55:14.102Z,31.47
2018-09-21T10:57:43.109Z,31.58
2018-09-21T11:00:12.415Z,31.67
2018-09-21T11:02:41.374Z,31.48
2018-09-21T11:05:10.334Z,31.71
2018-09-21T11:07:39.299Z,31.82
2018-09-21T11:10:08.228Z,32.01
2018-09-21T11:12:37.415Z,32.36
2018-09-21T11:15:06.394Z,32.57
2018-09-21T11:17:35.383Z,32.91
2018-09-21T11:20:04.371Z,33.54
2018-09-21T11:22:33.386Z,33.81
2018-09-21T11:25:02.349Z,34.25
2018-09-21T11:27:31.275Z,34.31
2018-09-21T11:30:00.238Z,34.60
2018-09-21T11:32:29.178Z,34.57
2018-09-21T11:34:58.174Z,34.88
2018-09-21T11:37:27.108Z,35.10
2018-09-21T11:39:56.064Z,34.75
2018-09-21T11:42:25.068Z,35.37
2018-09-21T11:44:54.103Z,36.20
2018-09-21T11:47:23.287Z,36.46
2018-09-21T11:49:52.159Z,36.20
2018-09-21T11:52:21.121Z,35.63
2018-09-21T11:54:50.049Z,35.46
2018-09-21T11:57:18.979Z,34.98
2018-09-21T11:59:47.895Z,34.82
2018-09-21T12:02:16.852Z,34.15
2018-09-21T12:04:45.928Z,33.90
2018-09-21T12:07:14.923Z,33.43
2018-09-21T12:09:43.962Z,33.53
2018-09-21T12:12:12.908Z,33.61
2018-09-21T12:14:42.033Z,33.66
2018-09-21T12:17:11.066Z,33.66
2018-09-21T12:19:40.054Z,33.73
2018-09-21T12:22:09.029Z,33.36
2018-09-21T12:24:38.075Z,33.33
2018-09-21T12:27:07.081Z,33.30
2018-09-21T12:29:36.096Z,32.72
2018-09-21T12:32:05.159Z,32.34
2018-09-21T12:34:34.140Z,32.13
2018-09-21T12:37:03.109Z,31.75
2018-09-21T12:39:32.081Z,31.60
2018-09-21T12:42:01.113Z,31.44
2018-09-21T12:44:30.156Z,31.44
2018-09-21T12:46:59.152Z,31.62
2018-09-21T12:49:28.131Z,31.61
2018-09-21T12:51:57.185Z,31.36
2018-09-21T12:54:26.139Z,31.28
2018-09-21T12:56:55.263Z,31.28
2018-09-21T12:59:24.231Z,31.37
2018-09-21T13:01:53.216Z,31.42
2018-09-21T13:04:22.250Z,31.28
2018-09-21T13:06:51.240Z,31.19
2018-09-21T13:09:20.199Z,31.19
2018-09-21T13:11:49.166Z,31.22
2018-09-21T13:14:18.134Z,31.04
2018-09-21T13:16:47.158Z,30.95
2018-09-21T13:19:16.365Z,30.80
2018-09-21T13:21:45.327Z,30.62
2018-09-21T13:24:14.289Z,30.50
2018-09-21T13:26:43.291Z,30.46
2018-09-21T13:29:12.284Z,30.44
2018-09-21T13:31:41.253Z,30.38
2018-09-21T13:34:10.270Z,30.41
2018-09-21T13:36:39.233Z,30.44
2018-09-21T13:39:10.875Z,30.37
2018-09-21T13:41:40.388Z,30.37
2018-09-21T13:44:09.579Z,30.31
2018-09-21T13:46:38.520Z,30.29
2018-09-21T13:49:07.515Z,30.24
2018-09-21T13:51:36.494Z,30.24
2018-09-21T13:54:05.445Z,30.24
2018-09-21T13:56:34.398Z,30.05
2018-09-21T13:59:03.386Z,30.11
2018-09-21T14:01:32.335Z,30.02
2018-09-21T14:04:01.406Z,29.90
2018-09-21T14:06:30.394Z,29.82
2018-09-21T14:08:59.449Z,29.80
2018-09-21T14:11:28.419Z,29.79
2018-09-21T14:13:57.369Z,29.72
2018-09-21T14:16:26.387Z,29.75
2018-09-21T14:18:55.357Z,29.74
2018-09-21T14:21:24.422Z,29.60
2018-09-21T14:23:53.360Z,29.55
2018-09-21T14:26:22.400Z,29.51
2018-09-21T14:28:51.400Z,29.46
2018-09-21T14:31:20.508Z,29.33
2018-09-21T14:33:49.503Z,29.24
2018-09-21T14:36:18.467Z,29.11
2018-09-21T14:38:47.445Z,29.01
2018-09-21T14:41:16.437Z,28.91
2018-09-21T14:43:45.470Z,28.85
2018-09-21T14:46:14.486Z,28.78
2018-09-21T14:48:43.495Z,28.71
2018-09-21T14:51:12.532Z,28.64
2018-09-21T14:53:41.531Z,28.51
2018-09-21T14:56:10.526Z,28.43
2018-09-21T14:58:39.683Z,28.30
2018-09-21T15:01:08.461Z,28.20
2018-09-21T15:03:37.536Z,28.09
2018-09-21T15:06:06.641Z,27.97
2018-09-21T15:08:35.636Z,27.86
2018-09-21T15:11:04.744Z,27.77
2018-09-21T15:13:33.818Z,27.66
2018-09-21T15:16:02.852Z,27.54
2018-09-21T15:18:32.039Z,27.44
2018-09-21T15:21:01.048Z,27.33
2018-09-21T15:23:30.443Z,27.19
2018-09-21T15:25:59.422Z,27.07
2018-09-21T15:28:28.448Z,26.92
2018-09-21T15:30:57.394Z,26.74
2018-09-21T15:33:26.433Z,26.52
2018-09-21T15:35:55.367Z,26.34
2018-09-21T15:38:24.294Z,26.15
2018-09-21T15:40:53.243Z,26.01
2018-09-21T15:43:22.271Z,25.87
2018-09-21T15:45:51.331Z,25.73
2018-09-21T15:48:20.325Z,25.57
2018-09-21T15:50:49.299Z,25.40
2018-09-21T15:53:18.235Z,25.24
2018-09-21T15:55:47.292Z,25.06
2018-09-21T15:58:16.296Z,24.91
2018-09-21T16:00:45.297Z,24.77
2018-09-21T16:03:14.325Z,24.65
2018-09-21T16:05:43.307Z,24.53
2018-09-21T16:08:12.304Z,24.28
2018-09-21T16:10:41.317Z,24.07
2018-09-21T16:13:10.355Z,23.99
2018-09-21T16:15:39.300Z,23.83
2018-09-21T16:18:08.359Z,23.71
2018-09-21T16:20:37.341Z,23.57
2018-09-21T16:23:06.548Z,23.35
2018-09-21T16:25:35.644Z,23.27
2018-09-21T16:28:04.643Z,23.21
2018-09-21T16:30:33.630Z,23.06
2018-09-21T16:33:02.680Z,22.93
2018-09-21T16:35:31.676Z,22.82
2018-09-21T16:38:00.743Z,22.68
2018-09-21T16:40:29.771Z,22.56
2018-09-21T16:42:58.772Z,22.46
2018-09-21T16:45:27.767Z,22.35
2018-09-21T16:47:56.822Z,22.25
2018-09-21T16:50:25.785Z,22.16
2018-09-21T16:52:54.763Z,22.10
2018-09-21T16:55:23.734Z,22.04
2018-09-21T16:57:52.818Z,21.95
2018-09-21T17:00:21.889Z,21.90
2018-09-21T17:02:50.973Z,21.77
2018-09-21T17:05:19.942Z,21.65
2018-09-21T17:07:48.888Z,21.50
2018-09-21T17:10:17.857Z,21.41
2018-09-21T17:12:46.857Z,21.35
2018-09-21T17:15:15.878Z,21.28
2018-09-21T17:17:44.865Z,21.24
2018-09-21T17:20:13.842Z,21.19
2018-09-21T17:22:42.867Z,21.17
2018-09-21T17:25:11.888Z,21.09
2018-09-21T17:27:40.965Z,21.07
2018-09-21T17:30:09.913Z,21.03
2018-09-21T17:32:38.947Z,20.99
2018-09-21T17:35:08.165Z,20.94
2018-09-21T17:37:37.147Z,20.79
2018-09-21T17:40:06.296Z,20.72
2018-09-21T17:42:35.241Z,20.69
2018-09-21T17:45:04.278Z,20.63
2018-09-21T17:47:33.389Z,20.57
2018-09-21T17:50:02.363Z,20.53
2018-09-21T17:52:31.377Z,20.56
2018-09-21T17:55:00.329Z,20.55
2018-09-21T17:57:29.273Z,20.50
2018-09-21T17:59:58.244Z,20.48
2018-09-21T18:02:27.356Z,20.48
2018-09-21T18:04:56.415Z,20.43
2018-09-21T18:07:25.413Z,20.38
2018-09-21T18:09:54.797Z,20.35
2018-09-21T18:12:23.793Z,20.31
2018-09-21T18:14:52.764Z,20.25
2018-09-21T18:17:21.732Z,20.21
2018-09-21T18:19:50.691Z,20.17
2018-09-21T18:22:19.717Z,20.14
2018-09-21T18:24:48.904Z,20.12
2018-09-21T18:27:17.877Z,20.10
2018-09-21T18:29:46.847Z,20.09
2018-09-21T18:32:15.874Z,20.09
2018-09-21T18:34:44.829Z,20.04
2018-09-21T18:37:13.792Z,20.04
2018-09-21T18:39:42.836Z,20.04
2018-09-21T18:42:11.803Z,20.02
2018-09-21T18:44:40.890Z,20.04
2018-09-21T18:47:09.832Z,20.01
2018-09-21T18:49:38.892Z,19.97
2018-09-21T18:52:07.895Z,19.94
2018-09-21T18:54:36.949Z,19.91
2018-09-21T18:57:05.951Z,19.92
2018-09-21T18:59:34.891Z,19.95
2018-09-21T19:02:03.840Z,20.06
2018-09-21T19:04:32.810Z,20.10
2018-09-21T19:07:01.838Z,20.17
2018-09-21T19:09:30.827Z,20.21
2018-09-21T19:11:59.884Z,20.24
2018-09-21T19:14:28.841Z,20.26
2018-09-21T19:16:57.901Z,20.27
2018-09-21T19:19:27.011Z,20.32
2018-09-21T19:21:55.973Z,20.37
2018-09-21T19:24:24.929Z,20.45
2018-09-21T19:26:53.900Z,20.54
2018-09-21T19:29:22.880Z,20.57
2018-09-21T19:31:51.898Z,20.63
2018-09-21T19:34:20.868Z,20.61
2018-09-21T19:36:49.909Z,20.60
2018-09-21T19:39:18.992Z,20.60
2018-09-21T19:41:48.215Z,20.57
2018-09-21T19:44:17.224Z,20.55
2018-09-21T19:46:46.287Z,20.54
2018-09-21T19:49:15.270Z,20.53
2018-09-21T19:51:44.229Z,20.57
2018-09-21T19:54:13.164Z,20.59
2018-09-21T19:56:42.123Z,20.60
2018-09-21T19:59:11.263Z,20.59
2018-09-21T20:01:40.335Z,20.61
2018-09-21T20:04:09.412Z,20.62
2018-09-21T20:06:38.408Z,20.68
2018-09-21T20:09:09.769Z,20.66
2018-09-21T20:11:38.771Z,20.66
2018-09-21T20:14:07.739Z,20.68
2018-09-21T20:16:36.748Z,20.65
2018-09-21T20:19:05.756Z,20.66
2018-09-21T20:21:34.710Z,20.66
2018-09-21T20:24:03.719Z,20.67
2018-09-21T20:26:32.744Z,20.62
2018-09-21T20:29:01.953Z,20.61
2018-09-21T20:31:35.939Z,20.60
2018-09-21T20:34:04.923Z,20.56
2018-09-21T20:36:33.944Z,20.53
2018-09-21T20:39:02.921Z,20.47
2018-09-21T20:41:31.917Z,20.40
2018-09-21T20:44:00.914Z,20.36
2018-09-21T20:46:29.956Z,20.25
2018-09-21T20:48:58.942Z,20.15
2018-09-21T20:51:27.900Z,20.05
2018-09-21T20:53:56.916Z,19.93
2018-09-21T20:56:25.880Z,19.82
2018-09-21T20:58:55.009Z,19.72
2018-09-21T21:01:24.099Z,19.62
2018-09-21T21:03:53.161Z,19.52
2018-09-21T21:06:22.142Z,19.46
2018-09-21T21:08:51.114Z,19.45
2018-09-21T21:11:20.073Z,19.42
2018-09-21T21:13:49.048Z,19.39
2018-09-21T21:16:18.105Z,19.29
2018-09-21T21:18:47.119Z,19.16
2018-09-21T21:21:16.126Z,19.07
2018-09-21T21:23:45.121Z,18.97
2018-09-21T21:26:14.161Z,18.91
2018-09-21T21:28:43.125Z,18.86
2018-09-21T21:31:12.133Z,18.77
2018-09-21T21:33:41.162Z,18.67
2018-09-21T21:36:10.145Z,18.62
2018-09-21T21:38:39.113Z,18.56
2018-09-21T21:41:08.068Z,18.52
2018-09-21T21:43:37.033Z,18.49
2018-09-21T21:46:06.056Z,18.46
2018-09-21T21:48:35.093Z,18.42
2018-09-21T21:51:04.168Z,18.47
2018-09-21T21:53:33.155Z,18.46
2018-09-21T21:56:02.179Z,18.44
2018-09-21T21:58:31.166Z,18.44
2018-09-21T22:01:05.183Z,18.43
2018-09-21T22:03:34.131Z,18.42
2018-09-21T22:06:03.133Z,18.40
2018-09-21T22:08:32.228Z,18.37
2018-09-21T22:11:04.939Z,18.31
2018-09-21T22:13:39.002Z,18.24
2018-09-21T22:16:08.092Z,18.19
2018-09-21T22:18:37.079Z,18.12
2018-09-21T22:21:06.016Z,18.07
2018-09-21T22:23:35.008Z,18.01
2018-09-21T22:26:03.977Z,17.98
2018-09-21T22:28:33.023Z,17.95
2018-09-21T22:31:02.011Z,17.92
2018-09-21T22:33:31.010Z,17.90
2018-09-21T22:36:00.025Z,17.55
2018-09-21T22:38:29.305Z,17.81
2018-09-21T22:40:58.291Z,17.75
2018-09-21T22:43:27.230Z,17.65
2018-09-21T22:45:56.220Z,17.59
2018-09-21T22:48:25.148Z,17.53
2018-09-21T22:50:54.261Z,17.46
2018-09-21T22:53:23.220Z,17.38
2018-09-21T22:55:52.298Z,17.30
2018-09-21T22:58:21.374Z,17.21
2018-09-21T23:00:50.306Z,17.18
2018-09-21T23:03:19.292Z,17.13
2018-09-21T23:05:48.297Z,17.12
2018-09-21T23:08:17.306Z,17.11
2018-09-21T23:10:46.328Z,17.05
2018-09-21T23:13:15.363Z,16.99
2018-09-21T23:15:44.351Z,16.94
2018-09-21T23:18:13.357Z,16.90
2018-09-21T23:20:42.320Z,16.94
2018-09-21T23:23:11.292Z,16.94
2018-09-21T23:25:40.244Z,16.87
2018-09-21T23:28:10.166Z,16.84
2018-09-21T23:30:39.174Z,16.83
2018-09-21T23:33:08.253Z,16.82
2018-09-21T23:35:37.254Z,16.81
2018-09-21T23:38:06.244Z,16.78
2018-09-21T23:40:35.199Z,16.77
2018-09-21T23:43:04.233Z,16.76
2018-09-21T23:45:33.214Z,16.71
2018-09-21T23:48:02.248Z,16.70
2018-09-21T23:50:31.191Z,16.68
2018-09-21T23:53:00.189Z,16.63
2018-09-21T23:55:29.235Z,16.58
2018-09-21T23:57:58.247Z,16.52
